createdAt,value
2022-12-26T00:01:48.623Z,100255.13
2022-12-26T00:04:49.705Z,100260.59
2022-12-26T00:07:10.265Z,100257.44
2022-12-26T00:09:39.686Z,100260.59
2022-12-26T00:12:09.326Z,100252.31
2022-12-26T00:14:38.756Z,100247.38
2022-12-26T00:17:08.179Z,100251.25
2022-12-26T00:19:37.588Z,100244.38
2022-12-26T00:22:06.976Z,100234.59
2022-12-26T00:24:38.965Z,100253.31
2022-12-26T00:27:08.337Z,100234.25
2022-12-26T00:29:37.706Z,100259.38
2022-12-26T00:32:07.500Z,100253.97
2022-12-26T00:34:36.881Z,100244.84
2022-12-26T00:37:06.239Z,100244.00
2022-12-26T00:39:35.640Z,100237.13
2022-12-26T00:42:07.685Z,100230.69
2022-12-26T00:44:37.156Z,100229.84
2022-12-26T00:47:06.556Z,100227.16
2022-12-26T00:50:13.128Z,100232.34
2022-12-26T00:52:25.626Z,100227.78
2022-12-26T00:54:55.004Z,100235.88
2022-12-26T00:57:26.969Z,100241.50
2022-12-26T00:59:56.374Z,100233.41
2022-12-26T01:02:41.267Z,100255.00
2022-12-26T01:05:12.758Z,100254.16
2022-12-26T01:08:21.428Z,100259.56
2022-12-26T01:10:32.416Z,100256.22
2022-12-26T01:13:04.642Z,100245.59
2022-12-26T01:15:34.063Z,100244.31
2022-12-26T01:18:04.004Z,100245.53
2022-12-26T01:20:34.890Z,100246.84
2022-12-26T01:23:04.316Z,100252.50
2022-12-26T01:25:33.713Z,100255.84
2022-12-26T01:28:05.913Z,100241.69
2022-12-26T01:30:35.359Z,100264.91
2022-12-26T01:33:04.796Z,100270.50
2022-12-26T01:35:34.174Z,100259.25
2022-12-26T01:38:05.031Z,100261.97
2022-12-26T01:40:34.441Z,100253.88
2022-12-26T01:43:06.416Z,100251.19
2022-12-26T01:45:36.053Z,100256.97
2022-12-26T01:48:08.684Z,100274.59
2022-12-26T01:50:44.128Z,100269.28
2022-12-26T01:53:18.733Z,100288.78
2022-12-26T01:55:55.114Z,100289.88
2022-12-26T01:58:32.916Z,100277.97
2022-12-26T02:01:05.350Z,100277.88
2022-12-26T02:03:48.141Z,100293.25
2022-12-26T02:06:18.312Z,100282.19
2022-12-26T02:08:49.134Z,100286.19
2022-12-26T02:11:22.298Z,100286.41
2022-12-26T02:13:54.114Z,100288.25
2022-12-26T02:16:25.683Z,100294.28
2022-12-26T02:18:55.171Z,100297.44
2022-12-26T02:21:58.160Z,100303.69
2022-12-26T02:24:56.959Z,100310.31
2022-12-26T02:27:49.553Z,100314.66
2022-12-26T02:30:34.245Z,100306.78
2022-12-26T02:33:22.705Z,100307.16
2022-12-26T02:36:12.441Z,100306.47
2022-12-26T02:38:57.743Z,100303.13
2022-12-26T02:41:36.481Z,100302.13
2022-12-26T02:44:30.512Z,100293.94
2022-12-26T02:47:14.150Z,100287.88
2022-12-26T02:50:11.353Z,100280.44
2022-12-26T02:53:04.817Z,100297.09
2022-12-26T02:55:48.101Z,100296.88
2022-12-26T02:58:35.423Z,100292.53
2022-12-26T03:01:22.394Z,100305.34
2022-12-26T03:04:10.539Z,100305.81
2022-12-26T03:06:56.919Z,100292.06
2022-12-26T03:09:42.367Z,100297.25
2022-12-26T03:12:29.324Z,100314.13
2022-12-26T03:15:03.789Z,100303.34
2022-12-26T03:17:36.106Z,100301.81
2022-12-26T03:20:13.669Z,100302.66
2022-12-26T03:22:49.490Z,100294.78
2022-12-26T03:25:38.451Z,100298.94
2022-12-26T03:28:08.038Z,100300.63
2022-12-26T03:30:50.872Z,100302.50
2022-12-26T03:33:33.651Z,100299.97
2022-12-26T03:36:08.480Z,100293.72
2022-12-26T03:38:51.455Z,100304.16
2022-12-26T03:41:40.012Z,100297.56
2022-12-26T03:44:37.894Z,100304.63
2022-12-26T03:47:32.209Z,100307.16
2022-12-26T03:50:19.922Z,100299.69
2022-12-26T03:53:11.144Z,100304.72
2022-12-26T03:56:05.248Z,100303.31
2022-12-26T03:58:52.076Z,100311.41
2022-12-26T04:01:39.602Z,100306.41
2022-12-26T04:04:25.782Z,100306.47
2022-12-26T04:07:15.702Z,100318.78
2022-12-26T04:10:21.894Z,100330.31
2022-12-26T04:13:06.091Z,100324.34
2022-12-26T04:15:56.097Z,100336.72
2022-12-26T04:18:42.215Z,100331.06
2022-12-26T04:21:30.040Z,100325.47
2022-12-26T04:24:14.380Z,100326.31
2022-12-26T04:27:03.012Z,100322.38
2022-12-26T04:29:45.513Z,100323.53
2022-12-26T04:32:35.035Z,100326.84
2022-12-26T04:35:22.443Z,100333.28
2022-12-26T04:38:06.669Z,100328.25
2022-12-26T04:40:54.643Z,100328.44
2022-12-26T04:43:50.443Z,100326.66
2022-12-26T04:46:22.847Z,100327.59
2022-12-26T04:49:07.322Z,100332.00
2022-12-26T04:51:37.378Z,100328.72
2022-12-26T04:54:07.772Z,100324.34
2022-12-26T04:56:37.204Z,100318.47
2022-12-26T04:59:09.187Z,100313.75
2022-12-26T05:01:51.195Z,100324.72
2022-12-26T05:04:33.600Z,100332.19
2022-12-26T05:07:16.630Z,100341.00
2022-12-26T05:09:45.954Z,100349.94
2022-12-26T05:12:15.341Z,100350.13
2022-12-26T05:14:47.389Z,100347.41
2022-12-26T05:17:30.210Z,100351.06
2022-12-26T05:20:12.218Z,100360.91
2022-12-26T05:22:57.028Z,100357.00
2022-12-26T05:25:41.287Z,100363.34
2022-12-26T05:28:24.247Z,100373.50
2022-12-26T05:30:56.616Z,100376.00
2022-12-26T05:33:38.616Z,100371.34
2022-12-26T05:36:08.518Z,100372.00
2022-12-26T05:38:38.336Z,100379.63
2022-12-26T05:41:08.174Z,100382.97
2022-12-26T05:43:37.566Z,100386.53
2022-12-26T05:46:09.746Z,100379.44
2022-12-26T05:48:39.239Z,100394.16
2022-12-26T05:51:09.039Z,100398.53
2022-12-26T05:53:39.031Z,100387.91
2022-12-26T05:56:10.479Z,100389.38
2022-12-26T05:58:40.053Z,100389.59
2022-12-26T06:01:14.979Z,100390.44
2022-12-26T06:03:47.420Z,100395.34
2022-12-26T06:06:17.871Z,100382.97
2022-12-26T06:08:49.888Z,100377.84
2022-12-26T06:11:20.496Z,100366.59
2022-12-26T06:13:49.922Z,100378.59
2022-12-26T06:16:22.222Z,100368.38
2022-12-26T06:18:51.658Z,100369.94
2022-12-26T06:21:22.248Z,100377.94
2022-12-26T06:23:52.118Z,100372.97
2022-12-26T06:26:21.528Z,100378.34
2022-12-26T06:28:50.909Z,100382.25
2022-12-26T06:31:24.800Z,100406.25
2022-12-26T06:33:58.281Z,100403.72
2022-12-26T06:36:29.657Z,100396.38
2022-12-26T06:39:01.180Z,100399.06
2022-12-26T06:41:30.657Z,100411.78
2022-12-26T06:44:00.128Z,100415.00
2022-12-26T06:46:32.242Z,100417.03
2022-12-26T06:49:01.723Z,100408.59
2022-12-26T06:51:31.504Z,100410.56
2022-12-26T06:54:02.835Z,100404.53
2022-12-26T06:56:34.362Z,100411.94
2022-12-26T06:59:05.915Z,100405.63
2022-12-26T07:01:38.347Z,100388.75
2022-12-26T07:04:08.149Z,100390.81
2022-12-26T07:06:39.091Z,100399.09
2022-12-26T07:09:10.891Z,100389.13
2022-12-26T07:11:42.222Z,100386.13
2022-12-26T07:14:12.440Z,100392.09
2022-12-26T07:16:47.815Z,100401.69
2022-12-26T07:19:18.921Z,100404.16
2022-12-26T07:21:49.464Z,100409.25
2022-12-26T07:24:20.846Z,100402.38
2022-12-26T07:26:51.341Z,100411.00
2022-12-26T07:29:21.935Z,100414.03
2022-12-26T07:31:53.953Z,100420.63
2022-12-26T07:34:29.425Z,100413.56
2022-12-26T07:37:00.770Z,100418.09
2022-12-26T07:39:30.229Z,100415.41
2022-12-26T07:42:02.408Z,100436.59
2022-12-26T07:44:33.389Z,100443.19
2022-12-26T07:47:05.466Z,100439.66
2022-12-26T07:49:35.080Z,100437.16
2022-12-26T07:52:04.568Z,100447.56
2022-12-26T07:54:33.931Z,100447.50
2022-12-26T07:57:38.155Z,100466.50
2022-12-26T07:59:53.728Z,100456.78
2022-12-26T08:02:27.653Z,100457.53
2022-12-26T08:04:57.276Z,100459.09
2022-12-26T08:07:26.972Z,100452.72
2022-12-26T08:09:56.509Z,100449.16
2022-12-26T08:12:27.112Z,100448.81
2022-12-26T08:14:56.565Z,100458.47
2022-12-26T08:17:31.041Z,100448.88
2022-12-26T08:20:01.676Z,100452.72
2022-12-26T08:22:31.100Z,100455.69
2022-12-26T08:25:00.490Z,100461.09
2022-12-26T08:27:29.939Z,100462.56
2022-12-26T08:29:59.646Z,100457.31
2022-12-26T08:32:31.712Z,100452.94
2022-12-26T08:35:01.256Z,100449.56
2022-12-26T08:37:30.708Z,100457.31
2022-12-26T08:40:00.159Z,100461.31
2022-12-26T08:42:30.434Z,100456.28
2022-12-26T08:44:59.839Z,100456.22
2022-12-26T08:47:32.197Z,100466.00
2022-12-26T08:50:01.678Z,100461.25
2022-12-26T08:52:31.117Z,100467.69
2022-12-26T08:55:00.548Z,100460.88
2022-12-26T08:57:30.517Z,100458.88
2022-12-26T08:59:59.846Z,100464.75
2022-12-26T09:02:32.038Z,100463.69
2022-12-26T09:05:01.554Z,100470.59
2022-12-26T09:07:30.957Z,100473.28
2022-12-26T09:10:00.361Z,100486.25
2022-12-26T09:12:30.062Z,100484.88
2022-12-26T09:14:59.509Z,100478.28
2022-12-26T09:17:33.112Z,100481.81
2022-12-26T09:20:02.577Z,100498.81
2022-12-26T09:22:44.535Z,100491.56
2022-12-26T09:25:13.970Z,100493.38
2022-12-26T09:27:43.456Z,100490.47
2022-12-26T09:30:14.279Z,100493.72
2022-12-26T09:32:46.325Z,100495.38
2022-12-26T09:35:16.154Z,100501.25
2022-12-26T09:37:45.660Z,100495.97
2022-12-26T09:40:28.146Z,100497.09
2022-12-26T09:43:08.796Z,100488.84
2022-12-26T09:45:52.078Z,100486.88
2022-12-26T09:48:29.807Z,100495.47
2022-12-26T09:50:59.533Z,100483.66
2022-12-26T09:53:34.606Z,100486.53
2022-12-26T09:56:08.619Z,100477.50
2022-12-26T09:58:46.816Z,100478.72
2022-12-26T10:01:20.407Z,100475.91
2022-12-26T10:03:56.502Z,100480.19
2022-12-26T10:06:27.966Z,100468.94
2022-12-26T10:09:12.801Z,100476.50
2022-12-26T10:12:02.846Z,100471.34
2022-12-26T10:14:44.072Z,100479.47
2022-12-26T10:17:21.025Z,100484.75
2022-12-26T10:20:10.844Z,100481.41
2022-12-26T10:23:04.709Z,100487.84
2022-12-26T10:25:45.556Z,100488.56
2022-12-26T10:28:21.067Z,100485.59
2022-12-26T10:30:53.452Z,100493.69
2022-12-26T10:33:33.282Z,100489.81
2022-12-26T10:36:05.930Z,100487.84
2022-12-26T10:38:38.793Z,100489.72
2022-12-26T10:41:16.737Z,100490.19
2022-12-26T10:43:46.243Z,100474.41
2022-12-26T10:46:36.545Z,100467.00
2022-12-26T10:49:07.089Z,100470.22
2022-12-26T10:51:39.738Z,100468.34
2022-12-26T10:54:17.916Z,100468.47
2022-12-26T10:56:50.176Z,100474.03
2022-12-26T10:59:23.441Z,100473.75
2022-12-26T11:01:53.425Z,100472.19
2022-12-26T11:04:52.846Z,100476.72
2022-12-26T11:07:21.276Z,100489.31
2022-12-26T11:09:57.753Z,100487.66
2022-12-26T11:12:30.831Z,100494.13
2022-12-26T11:15:02.096Z,100486.19
2022-12-26T11:17:34.295Z,100486.06
2022-12-26T11:20:24.863Z,100492.34
2022-12-26T11:22:57.401Z,100490.47
2022-12-26T11:25:28.271Z,100477.22
2022-12-26T11:27:59.407Z,100488.34
2022-12-26T11:30:32.895Z,100479.16
2022-12-26T11:33:21.046Z,100485.03
2022-12-26T11:35:56.922Z,100483.47
2022-12-26T11:38:45.055Z,100476.69
2022-12-26T11:41:31.249Z,100474.41
2022-12-26T11:44:04.919Z,100462.75
2022-12-26T11:46:38.082Z,100464.06
2022-12-26T11:49:08.366Z,100466.09
2022-12-26T11:51:41.497Z,100461.38
2022-12-26T11:54:32.853Z,100448.69
2022-12-26T11:57:24.308Z,100456.34
2022-12-26T11:59:55.659Z,100443.97
2022-12-26T12:02:29.302Z,100449.56
2022-12-26T12:05:03.774Z,100448.66
2022-12-26T12:07:46.300Z,100453.63
2022-12-26T12:10:48.996Z,100450.63
2022-12-26T12:13:28.971Z,100453.25
2022-12-26T12:16:07.162Z,100457.38
2022-12-26T12:18:51.316Z,100448.53
2022-12-26T12:21:29.677Z,100454.50
2022-12-26T12:24:20.465Z,100440.22
2022-12-26T12:27:04.941Z,100428.88
2022-12-26T12:30:01.242Z,100437.22
2022-12-26T12:32:35.267Z,100420.25
2022-12-26T12:35:27.206Z,100420.81
2022-12-26T12:38:16.963Z,100413.44
2022-12-26T12:40:54.409Z,100403.97
2022-12-26T12:43:34.156Z,100412.94
2022-12-26T12:46:13.550Z,100423.94
2022-12-26T12:49:06.537Z,100419.38
2022-12-26T12:51:44.444Z,100415.63
2022-12-26T12:54:38.169Z,100417.25
2022-12-26T12:57:15.757Z,100411.22
2022-12-26T12:59:58.752Z,100408.56
2022-12-26T13:02:32.067Z,100417.31
2022-12-26T13:05:08.876Z,100406.09
2022-12-26T13:07:47.436Z,100415.00
2022-12-26T13:10:23.456Z,100410.22
2022-12-26T13:12:56.156Z,100409.50
2022-12-26T13:15:37.326Z,100408.50
2022-12-26T13:18:13.293Z,100409.88
2022-12-26T13:20:46.157Z,100410.53
2022-12-26T13:23:35.053Z,100413.38
2022-12-26T13:26:12.115Z,100418.78
2022-12-26T13:28:51.229Z,100416.09
2022-12-26T13:31:23.505Z,100412.69
2022-12-26T13:33:53.141Z,100410.03
2022-12-26T13:36:44.927Z,100419.09
2022-12-26T13:39:27.833Z,100414.22
2022-12-26T13:42:11.377Z,100439.63
2022-12-26T13:44:40.640Z,100447.97
2022-12-26T13:47:34.273Z,100447.50
2022-12-26T13:50:33.615Z,100452.34
2022-12-26T13:53:03.238Z,100459.25
2022-12-26T13:55:46.293Z,100467.34
2022-12-26T13:58:51.743Z,100481.78
2022-12-26T14:01:36.483Z,100490.53
2022-12-26T14:04:36.977Z,100493.00
2022-12-26T14:07:22.316Z,100504.56
2022-12-26T14:10:07.023Z,100510.78
2022-12-26T14:12:51.381Z,100520.00
2022-12-26T14:15:29.737Z,100520.47
2022-12-26T14:18:11.090Z,100520.84
2022-12-26T14:20:53.057Z,100533.38
2022-12-26T14:23:34.643Z,100541.13
2022-12-26T14:26:10.981Z,100540.69
2022-12-26T14:28:56.796Z,100557.69
2022-12-26T14:31:34.663Z,100566.03
2022-12-26T14:34:16.489Z,100578.31
2022-12-26T14:36:54.774Z,100584.59
2022-12-26T14:39:34.435Z,100598.09
2022-12-26T14:42:34.057Z,100596.09
2022-12-26T14:45:05.047Z,100604.16
2022-12-26T14:47:41.000Z,100602.53
2022-12-26T14:50:43.200Z,100613.81
2022-12-26T14:53:33.637Z,100622.75
2022-12-26T14:56:04.888Z,100637.41
2022-12-26T14:58:45.213Z,100632.72
2022-12-26T15:01:50.841Z,100635.94
2022-12-26T15:04:55.511Z,100642.00
2022-12-26T15:07:47.782Z,100650.22
2022-12-26T15:10:41.612Z,100651.56
2022-12-26T15:13:49.239Z,100654.41
2022-12-26T15:16:29.500Z,100655.00
2022-12-26T15:19:24.337Z,100657.84
2022-12-26T15:22:17.712Z,100671.94
2022-12-26T15:25:20.734Z,100665.56
2022-12-26T15:28:17.213Z,100675.25
2022-12-26T15:31:09.612Z,100687.66
2022-12-26T15:33:43.425Z,100689.47
2022-12-26T15:36:22.760Z,100698.03
2022-12-26T15:39:00.570Z,100699.75
2022-12-26T15:41:39.511Z,100707.88
2022-12-26T15:44:24.618Z,100712.25
2022-12-26T15:47:04.559Z,100706.84
2022-12-26T15:49:49.131Z,100717.31
2022-12-26T15:52:28.489Z,100702.66
2022-12-26T15:55:22.352Z,100698.78
2022-12-26T15:57:58.633Z,100714.88
2022-12-26T16:00:34.198Z,100722.59
2022-12-26T16:03:18.266Z,100723.13
2022-12-26T16:05:56.235Z,100742.06
2022-12-26T16:08:56.935Z,100743.03
2022-12-26T16:11:29.316Z,100746.22
2022-12-26T16:14:01.909Z,100747.59
2022-12-26T16:16:39.317Z,100755.09
2022-12-26T16:19:20.698Z,100750.75
2022-12-26T16:22:06.852Z,100763.25
2022-12-26T16:24:37.995Z,100761.09
2022-12-26T16:27:10.064Z,100766.91
2022-12-26T16:29:48.658Z,100772.91
2022-12-26T16:32:24.327Z,100781.19
2022-12-26T16:34:53.914Z,100792.19
2022-12-26T16:37:25.775Z,100798.78
2022-12-26T16:40:10.769Z,100798.00
2022-12-26T16:42:40.329Z,100805.19
2022-12-26T16:45:22.521Z,100803.34
2022-12-26T16:47:55.081Z,100811.59
2022-12-26T16:50:26.804Z,100804.44
2022-12-26T16:53:13.854Z,100806.75
2022-12-26T16:55:47.144Z,100807.91
2022-12-26T16:58:20.866Z,100806.38
2022-12-26T17:00:54.072Z,100802.31
2022-12-26T17:03:35.744Z,100801.69
2022-12-26T17:06:10.521Z,100797.53
2022-12-26T17:08:45.431Z,100790.00
2022-12-26T17:11:15.273Z,100801.41
2022-12-26T17:13:56.834Z,100808.91
2022-12-26T17:16:27.750Z,100809.66
2022-12-26T17:19:11.135Z,100817.63
2022-12-26T17:21:40.666Z,100825.53
2022-12-26T17:24:27.857Z,100834.16
2022-12-26T17:27:12.671Z,100844.34
2022-12-26T17:29:57.066Z,100865.69
2022-12-26T17:32:39.713Z,100867.22
2022-12-26T17:35:16.624Z,100869.75
2022-12-26T17:37:47.320Z,100867.94
2022-12-26T17:40:30.067Z,100867.09
2022-12-26T17:43:09.205Z,100872.59
2022-12-26T17:45:46.204Z,100883.19
2022-12-26T17:48:16.122Z,100892.66
2022-12-26T17:50:50.213Z,100890.53
2022-12-26T17:53:29.579Z,100887.88
2022-12-26T17:56:00.747Z,100890.81
2022-12-26T17:58:31.406Z,100900.69
2022-12-26T18:01:01.603Z,100892.94
2022-12-26T18:03:31.317Z,100896.88
2022-12-26T18:06:03.378Z,100907.31
2022-12-26T18:08:35.907Z,100908.16
2022-12-26T18:11:08.283Z,100900.81
2022-12-26T18:13:37.993Z,100912.22
2022-12-26T18:16:08.788Z,100906.88
2022-12-26T18:18:40.503Z,100906.03
2022-12-26T18:21:14.899Z,100895.31
2022-12-26T18:23:44.619Z,100910.41
2022-12-26T18:26:20.806Z,100912.06
2022-12-26T18:28:51.918Z,100918.44
2022-12-26T18:31:21.826Z,100933.22
2022-12-26T18:33:51.347Z,100938.09
2022-12-26T18:36:32.266Z,100938.81
2022-12-26T18:39:01.670Z,100934.31
2022-12-26T18:41:31.086Z,100930.91
2022-12-26T18:44:00.542Z,100927.38
2022-12-26T18:46:31.373Z,100926.38
2022-12-26T18:49:00.811Z,100913.56
2022-12-26T18:51:32.763Z,100928.34
2022-12-26T18:54:02.144Z,100923.13
2022-12-26T18:56:31.555Z,100930.84
2022-12-26T18:59:00.932Z,100938.75
2022-12-26T19:01:30.401Z,100943.41
2022-12-26T19:03:59.937Z,100944.22
2022-12-26T19:06:35.228Z,100948.44
2022-12-26T19:09:04.728Z,100942.81
2022-12-26T19:11:34.320Z,100952.66
2022-12-26T19:14:03.678Z,100949.41
2022-12-26T19:16:33.107Z,100952.09
2022-12-26T19:19:02.559Z,100963.91
2022-12-26T19:21:34.653Z,100967.16
2022-12-26T19:24:04.107Z,100966.31
2022-12-26T19:26:33.659Z,100971.78
2022-12-26T19:29:03.041Z,100972.25
2022-12-26T19:31:32.588Z,100990.22
2022-12-26T19:34:02.226Z,100975.19
2022-12-26T19:36:34.211Z,100972.38
2022-12-26T19:39:03.600Z,100975.78
2022-12-26T19:41:33.205Z,100979.69
2022-12-26T19:44:03.630Z,100993.59
2022-12-26T19:46:33.071Z,101001.63
2022-12-26T19:49:03.234Z,100999.91
2022-12-26T19:51:35.452Z,100979.38
2022-12-26T19:54:05.802Z,100983.59
2022-12-26T19:56:35.803Z,100994.97
2022-12-26T19:59:05.327Z,100996.66
2022-12-26T20:01:35.290Z,100996.47
2022-12-26T20:04:07.144Z,101003.69
2022-12-26T20:06:41.274Z,101010.34
2022-12-26T20:09:12.968Z,101004.81
2022-12-26T20:11:45.137Z,101016.50
2022-12-26T20:14:17.498Z,101015.09
2022-12-26T20:17:08.645Z,101026.91
2022-12-26T20:19:39.325Z,101029.16
2022-12-26T20:22:11.722Z,101034.50
2022-12-26T20:24:41.125Z,101039.13
2022-12-26T20:27:10.545Z,101034.88
2022-12-26T20:29:40.006Z,101034.28
2022-12-26T20:32:09.559Z,101039.84
2022-12-26T20:34:39.144Z,101041.84
2022-12-26T20:37:11.169Z,101050.28
2022-12-26T20:39:40.616Z,101052.81
2022-12-26T20:42:11.096Z,101052.47
2022-12-26T20:44:41.557Z,101052.91
2022-12-26T20:47:10.978Z,101048.78
2022-12-26T20:49:40.377Z,101053.00
2022-12-26T20:52:12.386Z,101053.66
2022-12-26T20:54:41.792Z,101058.41
2022-12-26T20:57:11.216Z,101060.97
2022-12-26T20:59:40.621Z,101065.03
2022-12-26T21:02:10.148Z,101071.97
2022-12-26T21:04:39.763Z,101085.56
2022-12-26T21:07:11.854Z,101092.56
2022-12-26T21:09:46.246Z,101082.03
2022-12-26T21:12:16.221Z,101100.31
2022-12-26T21:14:45.629Z,101103.16
2022-12-26T21:17:18.745Z,101106.81
2022-12-26T21:19:48.442Z,101108.78
2022-12-26T21:22:20.413Z,101108.38
2022-12-26T21:24:49.896Z,101111.19
2022-12-26T21:27:19.293Z,101112.16
2022-12-26T21:29:49.046Z,101120.78
2022-12-26T21:32:18.454Z,101120.97
2022-12-26T21:34:47.950Z,101131.34
2022-12-26T21:37:41.295Z,101136.03
2022-12-26T21:40:11.770Z,101135.00
2022-12-26T21:42:41.261Z,101127.56
2022-12-26T21:45:12.261Z,101137.06
2022-12-26T21:47:41.665Z,101142.41
2022-12-26T21:50:11.864Z,101149.56
2022-12-26T21:52:43.848Z,101145.53
2022-12-26T21:55:26.405Z,101150.16
2022-12-26T21:57:56.192Z,101148.63
2022-12-26T22:00:25.795Z,101147.47
2022-12-26T22:03:07.789Z,101154.84
2022-12-26T22:05:39.220Z,101154.75
2022-12-26T22:08:12.739Z,101154.75
2022-12-26T22:11:10.772Z,101156.72
2022-12-26T22:13:44.705Z,101158.53
2022-12-26T22:16:16.376Z,101161.81
2022-12-26T22:18:47.582Z,101160.19
2022-12-26T22:21:18.846Z,101168.53
2022-12-26T22:23:53.289Z,101167.88
2022-12-26T22:26:24.640Z,101162.63
2022-12-26T22:28:54.046Z,101166.41
2022-12-26T22:31:25.935Z,101170.91
2022-12-26T22:34:00.221Z,101173.47
2022-12-26T22:36:30.210Z,101184.63
2022-12-26T22:39:02.563Z,101191.53
2022-12-26T22:41:32.654Z,101197.47
2022-12-26T22:44:02.112Z,101191.47
2022-12-26T22:46:31.509Z,101195.19
2022-12-26T22:49:00.905Z,101198.22
2022-12-26T22:51:30.351Z,101205.03
2022-12-26T22:54:03.708Z,101199.22
2022-12-26T22:56:33.122Z,101203.13
2022-12-26T22:59:03.122Z,101215.53
2022-12-26T23:01:33.300Z,101205.03
2022-12-26T23:04:03.865Z,101218.09
2022-12-26T23:06:35.958Z,101214.69
2022-12-26T23:09:14.226Z,101208.63
2022-12-26T23:12:04.186Z,101211.56
2022-12-26T23:14:33.935Z,101215.81
2022-12-26T23:17:07.195Z,101216.19
2022-12-26T23:20:05.517Z,101213.78
2022-12-26T23:22:35.864Z,101210.72
2022-12-26T23:25:08.495Z,101203.09
2022-12-26T23:27:50.462Z,101209.38
2022-12-26T23:30:23.253Z,101205.00
2022-12-26T23:32:54.093Z,101206.13
2022-12-26T23:35:24.841Z,101206.13
2022-12-26T23:37:54.705Z,101199.41
2022-12-26T23:40:26.802Z,101204.75
2022-12-26T23:42:56.169Z,101210.97
2022-12-26T23:45:25.707Z,101216.31
2022-12-26T23:47:55.116Z,101206.47
2022-12-26T23:50:24.636Z,101216.31
2022-12-26T23:52:54.098Z,101224.56
2022-12-26T23:55:26.071Z,101227.13
2022-12-26T23:57:57.727Z,101217.53
